JBU244 TNCM-TISX
Flight info
| Callsign | JBU244 |
|---|---|
| Flight time | 0h 22m |
| Altitude | 12000 |
| Route | PJM R760 COY |
| Aircraft | A320/M-SDE3FGHIRWY/LB1 |
Departure
| Time | 2026-05-07 23:57 |
|---|---|
| Airport | Princess Juliana International Airport (TNCM) |
Arrival
| Time | 2026-05-08 00:19 |
|---|---|
| Airport | Henry E. Rohlsen Airport (TISX) |
| Time | Latitude | Longitude | Altitude | Speed | Heading |
|---|---|---|---|---|---|
| 2026-05-07 23:31 | 18.04334 | -63.11363 | 23 ft | 0 kts | 352° |
| 2026-05-07 23:40 | 18.04333 | -63.11363 | 21 ft | 0 kts | 352° |
| 2026-05-07 23:49 | 18.04328 | -63.11362 | 22 ft | 4 kts | 351° |
| 2026-05-07 23:50 | 18.04301 | -63.11357 | 23 ft | 4 kts | 346° |
| 2026-05-07 23:50 | 18.04275 | -63.11349 | 24 ft | 4 kts | 336° |
| 2026-05-07 23:50 | 18.04253 | -63.11335 | 25 ft | 4 kts | 309° |
| 2026-05-07 23:50 | 18.04246 | -63.11318 | 25 ft | 1 kts | 261° |
| 2026-05-07 23:51 | 18.04246 | -63.11314 | 24 ft | 0 kts | 261° |
| 2026-05-07 23:53 | 18.04246 | -63.11316 | 21 ft | 1 kts | 261° |
| 2026-05-07 23:53 | 18.04242 | -63.11343 | 21 ft | 6 kts | 262° |
| 2026-05-07 23:54 | 18.04236 | -63.11394 | 21 ft | 8 kts | 264° |
| 2026-05-07 23:54 | 18.04225 | -63.11458 | 22 ft | 10 kts | 258° |
| 2026-05-07 23:54 | 18.04183 | -63.11524 | 21 ft | 12 kts | 230° |
| 2026-05-07 23:54 | 18.04128 | -63.11596 | 21 ft | 14 kts | 232° |
| 2026-05-07 23:55 | 18.04071 | -63.11683 | 21 ft | 15 kts | 248° |
| 2026-05-07 23:55 | 18.04049 | -63.11800 | 21 ft | 18 kts | 262° |
| 2026-05-07 23:55 | 18.04022 | -63.11913 | 22 ft | 16 kts | 236° |
| 2026-05-07 23:55 | 18.03950 | -63.11917 | 22 ft | 14 kts | 104° |
| 2026-05-07 23:56 | 18.03957 | -63.11840 | 22 ft | 18 kts | 80° |
| 2026-05-07 23:56 | 18.04012 | -63.11465 | 23 ft | 86 kts | 81° |
| 2026-05-07 23:56 | 18.04130 | -63.10651 | 26 ft | 137 kts | 81° |
| 2026-05-07 23:56 | 18.04280 | -63.09588 | 324 ft | 153 kts | 79° |
| 2026-05-07 23:57 | 18.04284 | -63.08441 | 745 ft | 167 kts | 111° |
| 2026-05-07 23:57 | 18.03400 | -63.07635 | 1154 ft | 181 kts | 161° |
| 2026-05-07 23:57 | 18.02144 | -63.07343 | 1509 ft | 196 kts | 166° |
| 2026-05-07 23:57 | 18.00707 | -63.07184 | 1789 ft | 223 kts | 186° |
| 2026-05-07 23:58 | 17.99255 | -63.07945 | 2142 ft | 252 kts | 226° |
| 2026-05-07 23:58 | 17.98433 | -63.09631 | 2647 ft | 271 kts | 257° |
| 2026-05-07 23:58 | 17.98119 | -63.11614 | 3443 ft | 278 kts | 265° |
| 2026-05-07 23:58 | 17.97965 | -63.13647 | 4370 ft | 281 kts | 268° |
| 2026-05-07 23:59 | 17.97858 | -63.15709 | 5278 ft | 283 kts | 268° |
| 2026-05-07 23:59 | 17.97743 | -63.17786 | 6157 ft | 287 kts | 268° |
| 2026-05-07 23:59 | 17.97605 | -63.19891 | 7003 ft | 290 kts | 268° |
| 2026-05-07 23:59 | 17.97448 | -63.21985 | 7807 ft | 292 kts | 267° |
| 2026-05-08 00:00 | 17.97274 | -63.24124 | 8605 ft | 296 kts | 267° |
| 2026-05-08 00:00 | 17.97088 | -63.26285 | 9411 ft | 298 kts | 266° |
| 2026-05-08 00:00 | 17.96896 | -63.28459 | 10200 ft | 300 kts | 267° |
| 2026-05-08 00:00 | 17.96694 | -63.30707 | 10483 ft | 321 kts | 266° |
| 2026-05-08 00:01 | 17.96476 | -63.33127 | 10619 ft | 344 kts | 266° |
| 2026-05-08 00:01 | 17.96246 | -63.35692 | 10872 ft | 359 kts | 266° |
| 2026-05-08 00:01 | 17.96005 | -63.38326 | 11431 ft | 365 kts | 266° |
| 2026-05-08 00:01 | 17.95763 | -63.40954 | 11887 ft | 368 kts | 266° |
| 2026-05-08 00:02 | 17.95516 | -63.43629 | 12024 ft | 369 kts | 266° |
| 2026-05-08 00:02 | 17.95267 | -63.46385 | 12060 ft | 390 kts | 266° |
| 2026-05-08 00:02 | 17.95008 | -63.49285 | 12057 ft | 405 kts | 267° |
| 2026-05-08 00:02 | 17.94740 | -63.52244 | 12062 ft | 409 kts | 266° |
| 2026-05-08 00:03 | 17.94468 | -63.55225 | 12059 ft | 410 kts | 266° |
| 2026-05-08 00:03 | 17.94194 | -63.58208 | 12061 ft | 410 kts | 266° |
| 2026-05-08 00:03 | 17.93920 | -63.61187 | 12060 ft | 410 kts | 266° |
| 2026-05-08 00:03 | 17.93645 | -63.64166 | 12066 ft | 410 kts | 266° |
| 2026-05-08 00:04 | 17.93325 | -63.67102 | 12060 ft | 411 kts | 262° |
| 2026-05-08 00:04 | 17.92761 | -63.70049 | 12065 ft | 411 kts | 261° |
| 2026-05-08 00:04 | 17.92193 | -63.72992 | 12064 ft | 412 kts | 261° |
| 2026-05-08 00:04 | 17.91631 | -63.75938 | 12065 ft | 412 kts | 261° |
| 2026-05-08 00:05 | 17.91071 | -63.78886 | 12063 ft | 412 kts | 261° |
| 2026-05-08 00:05 | 17.90511 | -63.81832 | 12064 ft | 412 kts | 261° |
| 2026-05-08 00:05 | 17.89949 | -63.84778 | 12066 ft | 412 kts | 261° |
| 2026-05-08 00:05 | 17.89386 | -63.87732 | 12069 ft | 412 kts | 261° |
| 2026-05-08 00:06 | 17.88829 | -63.90647 | 12071 ft | 413 kts | 260° |
| 2026-05-08 00:06 | 17.88264 | -63.93598 | 12073 ft | 413 kts | 261° |
| 2026-05-08 00:06 | 17.87696 | -63.96550 | 12075 ft | 413 kts | 260° |
| 2026-05-08 00:06 | 17.87127 | -63.99503 | 12079 ft | 413 kts | 260° |
| 2026-05-08 00:07 | 17.86560 | -64.02454 | 12084 ft | 413 kts | 261° |
| 2026-05-08 00:07 | 17.85993 | -64.05412 | 12079 ft | 413 kts | 261° |
| 2026-05-08 00:07 | 17.85426 | -64.08363 | 12083 ft | 413 kts | 260° |
| 2026-05-08 00:07 | 17.84859 | -64.11315 | 12072 ft | 411 kts | 260° |
| 2026-05-08 00:08 | 17.84299 | -64.14210 | 11699 ft | 398 kts | 260° |
| 2026-05-08 00:08 | 17.83760 | -64.16975 | 11323 ft | 386 kts | 261° |
| 2026-05-08 00:08 | 17.83230 | -64.19699 | 10943 ft | 377 kts | 260° |
| 2026-05-08 00:08 | 17.82712 | -64.22380 | 10570 ft | 374 kts | 260° |
| 2026-05-08 00:09 | 17.82195 | -64.25051 | 10200 ft | 372 kts | 261° |
| 2026-05-08 00:09 | 17.81685 | -64.27700 | 9821 ft | 367 kts | 261° |
| 2026-05-08 00:09 | 17.81187 | -64.30289 | 9415 ft | 358 kts | 259° |
| 2026-05-08 00:09 | 17.80680 | -64.32792 | 9010 ft | 341 kts | 259° |
| 2026-05-08 00:10 | 17.80200 | -64.35155 | 8604 ft | 322 kts | 260° |
| 2026-05-08 00:10 | 17.79746 | -64.37400 | 8219 ft | 307 kts | 263° |
| 2026-05-08 00:10 | 17.79615 | -64.39572 | 7834 ft | 293 kts | 272° |
| 2026-05-08 00:10 | 17.79608 | -64.41663 | 7456 ft | 289 kts | 272° |
| 2026-05-08 00:11 | 17.79626 | -64.43757 | 7076 ft | 287 kts | 272° |
| 2026-05-08 00:11 | 17.79644 | -64.45845 | 6702 ft | 286 kts | 272° |
| 2026-05-08 00:11 | 17.79674 | -64.47926 | 6322 ft | 284 kts | 272° |
| 2026-05-08 00:11 | 17.79712 | -64.49993 | 5927 ft | 283 kts | 273° |
| 2026-05-08 00:12 | 17.79738 | -64.52053 | 5537 ft | 283 kts | 272° |
| 2026-05-08 00:12 | 17.79710 | -64.54113 | 5148 ft | 281 kts | 267° |
| 2026-05-08 00:12 | 17.79528 | -64.56160 | 4761 ft | 283 kts | 265° |
| 2026-05-08 00:12 | 17.79320 | -64.58210 | 4369 ft | 282 kts | 266° |
| 2026-05-08 00:13 | 17.79122 | -64.60246 | 3977 ft | 282 kts | 266° |
| 2026-05-08 00:13 | 17.78938 | -64.62262 | 3594 ft | 280 kts | 265° |
| 2026-05-08 00:13 | 17.78762 | -64.64304 | 3309 ft | 280 kts | 265° |
| 2026-05-08 00:13 | 17.78595 | -64.66342 | 3164 ft | 281 kts | 265° |
| 2026-05-08 00:14 | 17.78434 | -64.68383 | 3034 ft | 280 kts | 266° |
| 2026-05-08 00:14 | 17.78273 | -64.70373 | 3002 ft | 267 kts | 265° |
| 2026-05-08 00:14 | 17.78123 | -64.72259 | 3011 ft | 253 kts | 265° |
| 2026-05-08 00:14 | 17.77973 | -64.74060 | 3007 ft | 241 kts | 266° |
| 2026-05-08 00:15 | 17.77825 | -64.75772 | 3009 ft | 232 kts | 266° |
| 2026-05-08 00:15 | 17.77681 | -64.77430 | 3002 ft | 223 kts | 268° |
| 2026-05-08 00:15 | 17.77454 | -64.78964 | 2938 ft | 208 kts | 256° |
| 2026-05-08 00:15 | 17.76983 | -64.80347 | 2843 ft | 197 kts | 245° |
| 2026-05-08 00:16 | 17.76379 | -64.81591 | 2693 ft | 186 kts | 238° |
| 2026-05-08 00:16 | 17.75693 | -64.82695 | 2486 ft | 178 kts | 234° |
| 2026-05-08 00:16 | 17.75072 | -64.83754 | 2356 ft | 163 kts | 238° |
| 2026-05-08 00:16 | 17.74510 | -64.84785 | 2072 ft | 161 kts | 237° |
| 2026-05-08 00:17 | 17.73869 | -64.85730 | 1875 ft | 156 kts | 233° |
| 2026-05-08 00:17 | 17.73011 | -64.86354 | 1475 ft | 151 kts | 189° |
| 2026-05-08 00:17 | 17.72064 | -64.86173 | 1102 ft | 137 kts | 133° |
| 2026-05-08 00:17 | 17.71290 | -64.85569 | 933 ft | 140 kts | 137° |
| 2026-05-08 00:18 | 17.70541 | -64.84926 | 767 ft | 138 kts | 128° |
| 2026-05-08 00:18 | 17.70023 | -64.84106 | 591 ft | 136 kts | 109° |
| 2026-05-08 00:18 | 17.69862 | -64.83163 | 393 ft | 130 kts | 85° |
| 2026-05-08 00:18 | 17.69950 | -64.82205 | 231 ft | 135 kts | 84° |
| 2026-05-08 00:19 | 17.70052 | -64.81227 | 89 ft | 130 kts | 84° |
| 2026-05-08 00:19 | 17.70108 | -64.80668 | 69 ft | 97 kts | 84° |
| 2026-05-08 00:19 | 17.70160 | -64.80167 | 74 ft | 34 kts | 83° |
| 2026-05-08 00:19 | 17.70175 | -64.80010 | 74 ft | 31 kts | 84° |
| 2026-05-08 00:20 | 17.70118 | -64.79788 | 71 ft | 20 kts | 113° |
| 2026-05-08 00:20 | 17.70079 | -64.79676 | 74 ft | 11 kts | 102° |
| 2026-05-08 00:20 | 17.70083 | -64.79586 | 71 ft | 14 kts | 89° |
| 2026-05-08 00:20 | 17.70057 | -64.79522 | 73 ft | 7 kts | 198° |
| 2026-05-08 00:21 | 17.70023 | -64.79528 | 74 ft | 8 kts | 174° |
| 2026-05-08 00:21 | 17.69992 | -64.79524 | 77 ft | 0 kts | 175° |
| 2026-05-08 00:21 | 17.69991 | -64.79525 | 77 ft | 0 kts | 189° |
| 2026-05-08 00:21 | 17.69982 | -64.79536 | 72 ft | 3 kts | 239° |
| 2026-05-08 00:22 | 17.69979 | -64.79568 | 72 ft | 5 kts | 264° |
| 2026-05-08 00:22 | 17.69978 | -64.79586 | 71 ft | 0 kts | 265° |